sensor_id;sensor_type;location;lat;lon;timestamp;P1;durP1;ratioP1;P2;durP2;ratioP2
23578;SDS011;11967;50.852;4.400;2023-07-29T00:00:38;2.60;;;1.30;;
23578;SDS011;11967;50.852;4.400;2023-07-29T00:03:04;2.42;;;1.58;;
23578;SDS011;11967;50.852;4.400;2023-07-29T00:05:30;1.70;;;1.40;;
23578;SDS011;11967;50.852;4.400;2023-07-29T00:07:56;3.00;;;1.50;;
23578;SDS011;11967;50.852;4.400;2023-07-29T00:10:22;2.45;;;1.48;;
23578;SDS011;11967;50.852;4.400;2023-07-29T00:12:48;3.50;;;1.50;;
23578;SDS011;11967;50.852;4.400;2023-07-29T00:15:13;2.17;;;1.80;;
23578;SDS011;11967;50.852;4.400;2023-07-29T00:17:39;3.08;;;1.60;;
23578;SDS011;11967;50.852;4.400;2023-07-29T00:20:05;2.72;;;1.50;;
23578;SDS011;11967;50.852;4.400;2023-07-29T00:22:31;2.88;;;1.30;;
23578;SDS011;11967;50.852;4.400;2023-07-29T00:24:57;3.75;;;1.63;;
23578;SDS011;11967;50.852;4.400;2023-07-29T00:27:24;2.10;;;1.40;;
23578;SDS011;11967;50.852;4.400;2023-07-29T00:29:50;4.20;;;1.60;;
23578;SDS011;11967;50.852;4.400;2023-07-29T00:32:16;4.13;;;1.70;;
23578;SDS011;11967;50.852;4.400;2023-07-29T00:34:41;2.40;;;1.50;;
23578;SDS011;11967;50.852;4.400;2023-07-29T00:37:07;2.38;;;1.58;;
23578;SDS011;11967;50.852;4.400;2023-07-29T00:39:32;3.85;;;1.50;;
23578;SDS011;11967;50.852;4.400;2023-07-29T00:41:58;2.60;;;1.50;;
23578;SDS011;11967;50.852;4.400;2023-07-29T00:44:25;2.10;;;1.50;;
23578;SDS011;11967;50.852;4.400;2023-07-29T00:46:54;2.80;;;1.70;;
23578;SDS011;11967;50.852;4.400;2023-07-29T00:49:21;2.55;;;1.77;;
23578;SDS011;11967;50.852;4.400;2023-07-29T00:51:47;3.90;;;1.70;;
23578;SDS011;11967;50.852;4.400;2023-07-29T00:54:13;3.15;;;1.70;;
23578;SDS011;11967;50.852;4.400;2023-07-29T00:56:39;3.15;;;1.60;;
23578;SDS011;11967;50.852;4.400;2023-07-29T00:59:05;3.38;;;1.70;;
23578;SDS011;11967;50.852;4.400;2023-07-29T01:01:31;4.10;;;1.75;;
23578;SDS011;11967;50.852;4.400;2023-07-29T01:03:57;4.47;;;2.05;;
23578;SDS011;11967;50.852;4.400;2023-07-29T01:09:01;3.90;;;1.77;;
23578;SDS011;11967;50.852;4.400;2023-07-29T01:11:33;5.40;;;2.10;;
23578;SDS011;11967;50.852;4.400;2023-07-29T01:17:04;2.13;;;1.58;;
23578;SDS011;11967;50.852;4.400;2023-07-29T01:22:20;5.25;;;2.08;;
23578;SDS011;11967;50.852;4.400;2023-07-29T01:24:46;2.88;;;1.98;;
23578;SDS011;11967;50.852;4.400;2023-07-29T01:27:12;2.05;;;1.80;;
23578;SDS011;11967;50.852;4.400;2023-07-29T01:29:38;3.50;;;1.70;;
23578;SDS011;11967;50.852;4.400;2023-07-29T01:32:20;4.13;;;1.80;;
23578;SDS011;11967;50.852;4.400;2023-07-29T01:34:56;4.80;;;1.90;;
23578;SDS011;11967;50.852;4.400;2023-07-29T01:37:30;4.07;;;2.00;;
23578;SDS011;11967;50.852;4.400;2023-07-29T01:39:59;2.90;;;1.77;;
23578;SDS011;11967;50.852;4.400;2023-07-29T01:42:25;3.80;;;1.90;;
23578;SDS011;11967;50.852;4.400;2023-07-29T01:44:52;2.78;;;1.92;;
23578;SDS011;11967;50.852;4.400;2023-07-29T01:47:17;5.35;;;2.22;;
23578;SDS011;11967;50.852;4.400;2023-07-29T01:49:43;4.28;;;1.77;;
23578;SDS011;11967;50.852;4.400;2023-07-29T01:52:09;4.75;;;1.90;;
23578;SDS011;11967;50.852;4.400;2023-07-29T01:54:35;5.45;;;2.05;;
23578;SDS011;11967;50.852;4.400;2023-07-29T01:57:00;2.50;;;1.98;;
23578;SDS011;11967;50.852;4.400;2023-07-29T01:59:26;4.65;;;2.08;;
23578;SDS011;11967;50.852;4.400;2023-07-29T02:01:52;3.17;;;1.80;;
23578;SDS011;11967;50.852;4.400;2023-07-29T02:04:17;2.58;;;1.90;;
23578;SDS011;11967;50.852;4.400;2023-07-29T02:06:43;4.72;;;2.00;;
23578;SDS011;11967;50.852;4.400;2023-07-29T02:09:09;6.57;;;2.22;;
23578;SDS011;11967;50.852;4.400;2023-07-29T02:11:34;4.70;;;1.92;;
23578;SDS011;11967;50.852;4.400;2023-07-29T02:14:00;4.80;;;2.22;;
23578;SDS011;11967;50.852;4.400;2023-07-29T02:16:26;3.78;;;1.90;;
23578;SDS011;11967;50.852;4.400;2023-07-29T02:18:51;3.95;;;2.00;;
23578;SDS011;11967;50.852;4.400;2023-07-29T02:21:17;4.90;;;2.17;;
23578;SDS011;11967;50.852;4.400;2023-07-29T02:23:44;6.18;;;1.92;;
23578;SDS011;11967;50.852;4.400;2023-07-29T02:26:09;5.82;;;1.85;;
23578;SDS011;11967;50.852;4.400;2023-07-29T02:28:35;4.28;;;2.00;;
23578;SDS011;11967;50.852;4.400;2023-07-29T02:31:20;4.82;;;2.00;;
23578;SDS011;11967;50.852;4.400;2023-07-29T02:33:47;3.08;;;1.70;;
23578;SDS011;11967;50.852;4.400;2023-07-29T02:36:14;2.75;;;1.70;;
23578;SDS011;11967;50.852;4.400;2023-07-29T02:38:40;3.05;;;2.00;;
23578;SDS011;11967;50.852;4.400;2023-07-29T02:41:06;3.65;;;1.83;;
23578;SDS011;11967;50.852;4.400;2023-07-29T02:43:34;4.05;;;1.90;;
23578;SDS011;11967;50.852;4.400;2023-07-29T02:46:00;4.10;;;1.73;;
23578;SDS011;11967;50.852;4.400;2023-07-29T02:48:26;4.50;;;2.10;;
23578;SDS011;11967;50.852;4.400;2023-07-29T02:50:53;2.67;;;1.90;;
23578;SDS011;11967;50.852;4.400;2023-07-29T02:53:19;3.33;;;1.80;;
23578;SDS011;11967;50.852;4.400;2023-07-29T02:55:45;3.15;;;1.70;;
23578;SDS011;11967;50.852;4.400;2023-07-29T02:58:10;5.20;;;1.52;;
23578;SDS011;11967;50.852;4.400;2023-07-29T03:00:36;4.80;;;1.95;;
23578;SDS011;11967;50.852;4.400;2023-07-29T03:03:03;3.45;;;2.05;;
23578;SDS011;11967;50.852;4.400;2023-07-29T03:05:28;3.17;;;1.60;;
23578;SDS011;11967;50.852;4.400;2023-07-29T03:07:54;3.78;;;1.80;;
23578;SDS011;11967;50.852;4.400;2023-07-29T03:10:19;2.47;;;1.55;;
23578;SDS011;11967;50.852;4.400;2023-07-29T03:12:45;3.72;;;1.85;;
23578;SDS011;11967;50.852;4.400;2023-07-29T03:15:11;4.07;;;1.70;;
23578;SDS011;11967;50.852;4.400;2023-07-29T03:17:37;4.00;;;1.80;;
23578;SDS011;11967;50.852;4.400;2023-07-29T03:20:03;5.10;;;1.90;;
23578;SDS011;11967;50.852;4.400;2023-07-29T03:22:30;7.10;;;2.08;;
23578;SDS011;11967;50.852;4.400;2023-07-29T03:24:55;4.15;;;1.65;;
23578;SDS011;11967;50.852;4.400;2023-07-29T03:27:21;3.55;;;1.75;;
23578;SDS011;11967;50.852;4.400;2023-07-29T03:29:46;3.13;;;1.70;;
23578;SDS011;11967;50.852;4.400;2023-07-29T03:32:12;3.50;;;2.00;;
23578;SDS011;11967;50.852;4.400;2023-07-29T03:34:38;4.30;;;2.30;;
23578;SDS011;11967;50.852;4.400;2023-07-29T03:37:05;4.90;;;2.25;;
23578;SDS011;11967;50.852;4.400;2023-07-29T03:39:31;6.95;;;1.83;;
23578;SDS011;11967;50.852;4.400;2023-07-29T03:41:57;4.35;;;1.73;;
23578;SDS011;11967;50.852;4.400;2023-07-29T03:44:23;5.03;;;2.00;;
23578;SDS011;11967;50.852;4.400;2023-07-29T03:46:48;4.30;;;1.90;;
23578;SDS011;11967;50.852;4.400;2023-07-29T03:49:14;3.33;;;1.90;;
23578;SDS011;11967;50.852;4.400;2023-07-29T03:51:40;3.35;;;2.00;;
23578;SDS011;11967;50.852;4.400;2023-07-29T03:54:06;5.60;;;2.30;;
23578;SDS011;11967;50.852;4.400;2023-07-29T03:56:31;3.33;;;1.80;;
23578;SDS011;11967;50.852;4.400;2023-07-29T03:59:06;3.72;;;2.10;;
23578;SDS011;11967;50.852;4.400;2023-07-29T04:01:32;6.10;;;2.20;;
23578;SDS011;11967;50.852;4.400;2023-07-29T04:03:58;3.00;;;1.70;;
23578;SDS011;11967;50.852;4.400;2023-07-29T04:06:24;3.80;;;2.08;;
23578;SDS011;11967;50.852;4.400;2023-07-29T04:08:49;6.13;;;1.98;;
23578;SDS011;11967;50.852;4.400;2023-07-29T04:11:15;4.45;;;2.28;;
23578;SDS011;11967;50.852;4.400;2023-07-29T04:13:41;4.75;;;2.08;;
23578;SDS011;11967;50.852;4.400;2023-07-29T04:16:07;2.28;;;1.60;;
23578;SDS011;11967;50.852;4.400;2023-07-29T04:18:32;2.60;;;1.70;;
23578;SDS011;11967;50.852;4.400;2023-07-29T04:20:58;4.20;;;1.80;;
23578;SDS011;11967;50.852;4.400;2023-07-29T04:23:23;4.38;;;1.90;;
23578;SDS011;11967;50.852;4.400;2023-07-29T04:25:49;3.38;;;2.08;;
23578;SDS011;11967;50.852;4.400;2023-07-29T04:28:15;3.55;;;2.03;;
23578;SDS011;11967;50.852;4.400;2023-07-29T04:30:40;4.07;;;2.10;;
23578;SDS011;11967;50.852;4.400;2023-07-29T04:33:06;3.70;;;2.20;;
23578;SDS011;11967;50.852;4.400;2023-07-29T04:35:32;3.65;;;2.10;;
23578;SDS011;11967;50.852;4.400;2023-07-29T04:37:57;4.35;;;1.80;;
23578;SDS011;11967;50.852;4.400;2023-07-29T04:40:23;3.17;;;1.90;;
23578;SDS011;11967;50.852;4.400;2023-07-29T04:42:49;3.17;;;2.00;;
23578;SDS011;11967;50.852;4.400;2023-07-29T04:45:15;4.68;;;2.00;;
23578;SDS011;11967;50.852;4.400;2023-07-29T04:47:42;4.53;;;2.08;;
23578;SDS011;11967;50.852;4.400;2023-07-29T04:50:08;3.45;;;2.10;;
23578;SDS011;11967;50.852;4.400;2023-07-29T04:52:34;4.10;;;1.95;;
23578;SDS011;11967;50.852;4.400;2023-07-29T04:54:59;2.72;;;1.95;;
23578;SDS011;11967;50.852;4.400;2023-07-29T04:57:25;3.80;;;2.17;;
23578;SDS011;11967;50.852;4.400;2023-07-29T04:59:50;3.47;;;2.22;;
23578;SDS011;11967;50.852;4.400;2023-07-29T05:02:16;7.63;;;2.10;;
23578;SDS011;11967;50.852;4.400;2023-07-29T05:04:42;3.72;;;1.98;;
23578;SDS011;11967;50.852;4.400;2023-07-29T05:07:07;4.20;;;2.05;;
23578;SDS011;11967;50.852;4.400;2023-07-29T05:09:33;6.15;;;2.20;;
23578;SDS011;11967;50.852;4.400;2023-07-29T05:11:59;5.85;;;2.20;;
23578;SDS011;11967;50.852;4.400;2023-07-29T05:14:25;3.53;;;2.20;;
23578;SDS011;11967;50.852;4.400;2023-07-29T05:16:51;3.38;;;1.98;;
23578;SDS011;11967;50.852;4.400;2023-07-29T05:19:16;6.30;;;2.00;;
23578;SDS011;11967;50.852;4.400;2023-07-29T05:21:42;5.75;;;1.80;;
23578;SDS011;11967;50.852;4.400;2023-07-29T05:24:08;3.88;;;1.88;;
23578;SDS011;11967;50.852;4.400;2023-07-29T05:26:34;4.10;;;1.88;;
23578;SDS011;11967;50.852;4.400;2023-07-29T05:29:00;4.57;;;1.80;;
23578;SDS011;11967;50.852;4.400;2023-07-29T05:31:25;3.88;;;2.05;;
23578;SDS011;11967;50.852;4.400;2023-07-29T05:33:51;3.88;;;2.00;;
23578;SDS011;11967;50.852;4.400;2023-07-29T05:36:16;3.22;;;2.15;;
23578;SDS011;11967;50.852;4.400;2023-07-29T05:38:42;2.40;;;1.65;;
23578;SDS011;11967;50.852;4.400;2023-07-29T05:41:08;8.77;;;2.00;;
23578;SDS011;11967;50.852;4.400;2023-07-29T05:43:33;5.15;;;2.17;;
23578;SDS011;11967;50.852;4.400;2023-07-29T05:45:59;2.13;;;1.67;;
23578;SDS011;11967;50.852;4.400;2023-07-29T05:48:24;4.38;;;1.92;;
23578;SDS011;11967;50.852;4.400;2023-07-29T05:50:50;4.72;;;1.88;;
23578;SDS011;11967;50.852;4.400;2023-07-29T05:53:16;3.35;;;1.92;;
23578;SDS011;11967;50.852;4.400;2023-07-29T05:55:41;3.03;;;1.75;;
23578;SDS011;11967;50.852;4.400;2023-07-29T05:58:08;4.03;;;1.73;;
23578;SDS011;11967;50.852;4.400;2023-07-29T06:00:34;4.80;;;1.63;;
23578;SDS011;11967;50.852;4.400;2023-07-29T06:03:00;3.00;;;1.73;;
23578;SDS011;11967;50.852;4.400;2023-07-29T06:05:25;4.63;;;1.73;;
23578;SDS011;11967;50.852;4.400;2023-07-29T06:07:51;2.40;;;1.38;;
23578;SDS011;11967;50.852;4.400;2023-07-29T06:10:18;2.63;;;1.70;;
23578;SDS011;11967;50.852;4.400;2023-07-29T06:12:44;2.33;;;1.63;;
23578;SDS011;11967;50.852;4.400;2023-07-29T06:15:10;4.72;;;1.80;;
23578;SDS011;11967;50.852;4.400;2023-07-29T06:17:37;4.40;;;1.67;;
23578;SDS011;11967;50.852;4.400;2023-07-29T06:20:03;2.38;;;1.70;;
23578;SDS011;11967;50.852;4.400;2023-07-29T06:22:29;3.25;;;1.70;;
23578;SDS011;11967;50.852;4.400;2023-07-29T06:24:55;2.65;;;1.75;;
23578;SDS011;11967;50.852;4.400;2023-07-29T06:27:20;4.40;;;1.92;;
23578;SDS011;11967;50.852;4.400;2023-07-29T06:29:46;3.30;;;1.55;;
23578;SDS011;11967;50.852;4.400;2023-07-29T06:32:12;2.35;;;1.63;;
23578;SDS011;11967;50.852;4.400;2023-07-29T06:34:37;2.92;;;1.52;;
23578;SDS011;11967;50.852;4.400;2023-07-29T06:37:03;2.72;;;1.67;;
23578;SDS011;11967;50.852;4.400;2023-07-29T06:39:28;3.55;;;1.60;;
23578;SDS011;11967;50.852;4.400;2023-07-29T06:41:54;2.20;;;1.63;;
23578;SDS011;11967;50.852;4.400;2023-07-29T06:44:20;3.50;;;1.50;;
23578;SDS011;11967;50.852;4.400;2023-07-29T06:46:46;4.72;;;1.70;;
23578;SDS011;11967;50.852;4.400;2023-07-29T06:49:11;3.63;;;1.50;;
23578;SDS011;11967;50.852;4.400;2023-07-29T06:51:37;5.38;;;2.00;;
23578;SDS011;11967;50.852;4.400;2023-07-29T06:54:03;5.10;;;1.42;;
23578;SDS011;11967;50.852;4.400;2023-07-29T06:56:28;2.65;;;1.52;;
23578;SDS011;11967;50.852;4.400;2023-07-29T06:58:54;2.50;;;1.52;;
23578;SDS011;11967;50.852;4.400;2023-07-29T07:01:20;2.65;;;1.60;;
23578;SDS011;11967;50.852;4.400;2023-07-29T07:03:45;3.13;;;1.52;;
23578;SDS011;11967;50.852;4.400;2023-07-29T07:06:11;2.85;;;1.27;;
23578;SDS011;11967;50.852;4.400;2023-07-29T07:08:37;2.50;;;1.70;;
23578;SDS011;11967;50.852;4.400;2023-07-29T07:11:02;6.20;;;2.00;;
23578;SDS011;11967;50.852;4.400;2023-07-29T07:13:28;4.88;;;1.88;;
23578;SDS011;11967;50.852;4.400;2023-07-29T07:15:54;3.05;;;1.58;;
23578;SDS011;11967;50.852;4.400;2023-07-29T07:18:20;4.57;;;1.73;;
23578;SDS011;11967;50.852;4.400;2023-07-29T07:20:49;2.72;;;1.63;;
23578;SDS011;11967;50.852;4.400;2023-07-29T07:23:16;4.18;;;1.50;;
23578;SDS011;11967;50.852;4.400;2023-07-29T07:25:43;2.92;;;1.73;;
23578;SDS011;11967;50.852;4.400;2023-07-29T07:28:09;3.95;;;1.75;;
23578;SDS011;11967;50.852;4.400;2023-07-29T07:30:39;4.05;;;1.65;;
23578;SDS011;11967;50.852;4.400;2023-07-29T07:33:06;2.83;;;1.60;;
23578;SDS011;11967;50.852;4.400;2023-07-29T07:35:32;3.70;;;1.50;;
23578;SDS011;11967;50.852;4.400;2023-07-29T07:37:57;3.15;;;1.67;;
23578;SDS011;11967;50.852;4.400;2023-07-29T07:40:24;4.28;;;1.50;;
23578;SDS011;11967;50.852;4.400;2023-07-29T07:42:50;3.83;;;1.50;;
23578;SDS011;11967;50.852;4.400;2023-07-29T07:45:15;5.88;;;1.90;;
23578;SDS011;11967;50.852;4.400;2023-07-29T07:47:43;7.47;;;2.10;;
23578;SDS011;11967;50.852;4.400;2023-07-29T07:50:09;1.58;;;1.38;;
23578;SDS011;11967;50.852;4.400;2023-07-29T07:52:35;7.45;;;1.67;;
23578;SDS011;11967;50.852;4.400;2023-07-29T07:55:00;3.35;;;1.80;;
23578;SDS011;11967;50.852;4.400;2023-07-29T07:57:26;3.33;;;1.55;;
23578;SDS011;11967;50.852;4.400;2023-07-29T07:59:51;3.38;;;1.70;;
23578;SDS011;11967;50.852;4.400;2023-07-29T08:02:17;3.80;;;1.63;;
23578;SDS011;11967;50.852;4.400;2023-07-29T08:04:43;3.25;;;1.85;;
23578;SDS011;11967;50.852;4.400;2023-07-29T08:07:09;3.35;;;1.45;;
23578;SDS011;11967;50.852;4.400;2023-07-29T08:09:35;4.00;;;1.80;;
23578;SDS011;11967;50.852;4.400;2023-07-29T08:12:00;3.33;;;1.60;;
23578;SDS011;11967;50.852;4.400;2023-07-29T08:14:26;3.35;;;1.60;;
23578;SDS011;11967;50.852;4.400;2023-07-29T08:16:52;3.47;;;1.63;;
23578;SDS011;11967;50.852;4.400;2023-07-29T08:19:17;2.30;;;1.50;;
23578;SDS011;11967;50.852;4.400;2023-07-29T08:21:43;4.05;;;1.63;;
23578;SDS011;11967;50.852;4.400;2023-07-29T08:24:09;3.08;;;2.00;;
23578;SDS011;11967;50.852;4.400;2023-07-29T08:26:34;7.68;;;1.85;;
23578;SDS011;11967;50.852;4.400;2023-07-29T08:29:00;4.50;;;2.33;;
23578;SDS011;11967;50.852;4.400;2023-07-29T08:31:25;2.60;;;1.50;;
23578;SDS011;11967;50.852;4.400;2023-07-29T08:33:51;3.10;;;1.90;;
23578;SDS011;11967;50.852;4.400;2023-07-29T08:36:16;5.15;;;3.00;;
23578;SDS011;11967;50.852;4.400;2023-07-29T08:38:42;5.63;;;3.35;;
23578;SDS011;11967;50.852;4.400;2023-07-29T08:41:29;4.03;;;2.03;;
23578;SDS011;11967;50.852;4.400;2023-07-29T08:44:09;3.42;;;1.48;;
23578;SDS011;11967;50.852;4.400;2023-07-29T08:46:38;4.03;;;1.73;;
23578;SDS011;11967;50.852;4.400;2023-07-29T08:49:05;2.78;;;1.40;;
23578;SDS011;11967;50.852;4.400;2023-07-29T08:51:32;2.53;;;1.77;;
23578;SDS011;11967;50.852;4.400;2023-07-29T08:53:59;3.50;;;1.67;;
23578;SDS011;11967;50.852;4.400;2023-07-29T08:56:26;3.03;;;1.63;;
23578;SDS011;11967;50.852;4.400;2023-07-29T08:58:53;4.03;;;1.60;;
23578;SDS011;11967;50.852;4.400;2023-07-29T09:01:19;4.35;;;1.83;;
23578;SDS011;11967;50.852;4.400;2023-07-29T09:03:45;2.40;;;1.50;;
23578;SDS011;11967;50.852;4.400;2023-07-29T09:06:10;3.17;;;1.60;;
23578;SDS011;11967;50.852;4.400;2023-07-29T09:08:38;3.58;;;2.08;;
23578;SDS011;11967;50.852;4.400;2023-07-29T09:11:04;2.67;;;1.73;;
23578;SDS011;11967;50.852;4.400;2023-07-29T09:13:31;3.60;;;1.92;;
23578;SDS011;11967;50.852;4.400;2023-07-29T09:15:57;3.60;;;1.90;;
23578;SDS011;11967;50.852;4.400;2023-07-29T09:18:23;3.05;;;2.00;;
23578;SDS011;11967;50.852;4.400;2023-07-29T09:20:51;3.30;;;2.08;;
23578;SDS011;11967;50.852;4.400;2023-07-29T09:23:17;3.30;;;1.58;;
23578;SDS011;11967;50.852;4.400;2023-07-29T09:25:43;3.78;;;1.67;;
23578;SDS011;11967;50.852;4.400;2023-07-29T09:28:12;2.00;;;1.73;;
23578;SDS011;11967;50.852;4.400;2023-07-29T09:30:39;4.88;;;2.50;;
23578;SDS011;11967;50.852;4.400;2023-07-29T09:33:06;3.00;;;1.98;;
23578;SDS011;11967;50.852;4.400;2023-07-29T09:35:33;4.20;;;1.88;;
23578;SDS011;11967;50.852;4.400;2023-07-29T09:37:59;5.28;;;2.17;;
23578;SDS011;11967;50.852;4.400;2023-07-29T09:40:25;2.88;;;1.90;;
23578;SDS011;11967;50.852;4.400;2023-07-29T09:42:52;4.43;;;2.00;;
23578;SDS011;11967;50.852;4.400;2023-07-29T09:45:19;3.50;;;1.80;;
23578;SDS011;11967;50.852;4.400;2023-07-29T09:47:46;3.13;;;1.83;;
23578;SDS011;11967;50.852;4.400;2023-07-29T09:50:12;4.32;;;2.25;;
23578;SDS011;11967;50.852;4.400;2023-07-29T09:52:37;3.83;;;1.88;;
23578;SDS011;11967;50.852;4.400;2023-07-29T09:55:03;2.72;;;1.92;;
23578;SDS011;11967;50.852;4.400;2023-07-29T09:57:31;2.75;;;1.90;;
23578;SDS011;11967;50.852;4.400;2023-07-29T09:59:57;4.85;;;1.88;;
23578;SDS011;11967;50.852;4.400;2023-07-29T10:02:23;2.53;;;1.98;;
23578;SDS011;11967;50.852;4.400;2023-07-29T10:04:51;2.90;;;1.90;;
23578;SDS011;11967;50.852;4.400;2023-07-29T10:07:17;3.85;;;1.83;;
23578;SDS011;11967;50.852;4.400;2023-07-29T10:09:45;3.58;;;1.85;;
23578;SDS011;11967;50.852;4.400;2023-07-29T10:12:11;5.03;;;2.00;;
23578;SDS011;11967;50.852;4.400;2023-07-29T10:14:38;3.65;;;1.85;;
23578;SDS011;11967;50.852;4.400;2023-07-29T10:17:07;2.45;;;1.88;;
23578;SDS011;11967;50.852;4.400;2023-07-29T10:19:34;3.10;;;1.77;;
23578;SDS011;11967;50.852;4.400;2023-07-29T10:22:01;7.47;;;2.45;;
23578;SDS011;11967;50.852;4.400;2023-07-29T10:24:29;3.65;;;1.98;;
23578;SDS011;11967;50.852;4.400;2023-07-29T10:26:57;2.30;;;1.67;;
23578;SDS011;11967;50.852;4.400;2023-07-29T10:29:24;2.88;;;1.80;;
23578;SDS011;11967;50.852;4.400;2023-07-29T10:31:57;3.25;;;1.85;;
23578;SDS011;11967;50.852;4.400;2023-07-29T10:34:26;4.30;;;2.25;;
23578;SDS011;11967;50.852;4.400;2023-07-29T10:36:53;6.53;;;2.50;;
23578;SDS011;11967;50.852;4.400;2023-07-29T10:39:19;5.18;;;2.47;;
23578;SDS011;11967;50.852;4.400;2023-07-29T10:41:58;7.10;;;2.28;;
23578;SDS011;11967;50.852;4.400;2023-07-29T10:47:14;3.67;;;2.42;;
23578;SDS011;11967;50.852;4.400;2023-07-29T10:49:40;3.53;;;2.20;;
23578;SDS011;11967;50.852;4.400;2023-07-29T10:52:06;5.15;;;2.75;;
23578;SDS011;11967;50.852;4.400;2023-07-29T10:54:41;6.05;;;2.65;;
23578;SDS011;11967;50.852;4.400;2023-07-29T10:57:14;8.05;;;2.50;;
23578;SDS011;11967;50.852;4.400;2023-07-29T10:59:41;5.25;;;2.72;;
23578;SDS011;11967;50.852;4.400;2023-07-29T11:02:19;5.68;;;2.90;;
23578;SDS011;11967;50.852;4.400;2023-07-29T11:04:46;4.72;;;2.88;;
23578;SDS011;11967;50.852;4.400;2023-07-29T11:09:41;6.68;;;2.70;;
23578;SDS011;11967;50.852;4.400;2023-07-29T11:14:59;6.32;;;3.20;;
23578;SDS011;11967;50.852;4.400;2023-07-29T11:17:28;6.13;;;3.45;;
23578;SDS011;11967;50.852;4.400;2023-07-29T11:19:58;4.82;;;3.22;;
23578;SDS011;11967;50.852;4.400;2023-07-29T11:22:27;5.05;;;3.15;;
23578;SDS011;11967;50.852;4.400;2023-07-29T11:24:53;9.30;;;3.30;;
23578;SDS011;11967;50.852;4.400;2023-07-29T11:27:19;3.72;;;2.58;;
23578;SDS011;11967;50.852;4.400;2023-07-29T11:29:45;3.35;;;2.53;;
23578;SDS011;11967;50.852;4.400;2023-07-29T11:32:12;3.70;;;2.58;;
23578;SDS011;11967;50.852;4.400;2023-07-29T11:34:38;4.07;;;2.60;;
23578;SDS011;11967;50.852;4.400;2023-07-29T11:37:09;2.45;;;2.10;;
23578;SDS011;11967;50.852;4.400;2023-07-29T11:39:39;4.97;;;3.00;;
23578;SDS011;11967;50.852;4.400;2023-07-29T11:42:06;3.78;;;2.20;;
23578;SDS011;11967;50.852;4.400;2023-07-29T11:44:32;5.03;;;2.38;;
23578;SDS011;11967;50.852;4.400;2023-07-29T11:46:57;4.22;;;2.25;;
23578;SDS011;11967;50.852;4.400;2023-07-29T11:49:23;3.42;;;2.55;;
23578;SDS011;11967;50.852;4.400;2023-07-29T11:51:48;3.05;;;2.25;;
23578;SDS011;11967;50.852;4.400;2023-07-29T11:54:14;5.03;;;2.30;;
23578;SDS011;11967;50.852;4.400;2023-07-29T11:56:40;2.40;;;2.08;;
23578;SDS011;11967;50.852;4.400;2023-07-29T11:59:06;4.72;;;2.40;;
23578;SDS011;11967;50.852;4.400;2023-07-29T12:01:32;2.65;;;2.15;;
23578;SDS011;11967;50.852;4.400;2023-07-29T12:03:58;4.97;;;2.35;;
23578;SDS011;11967;50.852;4.400;2023-07-29T12:06:24;2.20;;;2.00;;
23578;SDS011;11967;50.852;4.400;2023-07-29T12:08:50;2.85;;;2.13;;
23578;SDS011;11967;50.852;4.400;2023-07-29T12:11:16;2.83;;;2.33;;
23578;SDS011;11967;50.852;4.400;2023-07-29T12:13:42;4.10;;;2.78;;
23578;SDS011;11967;50.852;4.400;2023-07-29T12:16:08;3.60;;;2.63;;
23578;SDS011;11967;50.852;4.400;2023-07-29T12:18:34;4.38;;;3.17;;
23578;SDS011;11967;50.852;4.400;2023-07-29T12:21:01;4.85;;;3.15;;
23578;SDS011;11967;50.852;4.400;2023-07-29T12:23:28;4.88;;;3.30;;
23578;SDS011;11967;50.852;4.400;2023-07-29T12:25:58;4.07;;;2.58;;
23578;SDS011;11967;50.852;4.400;2023-07-29T12:28:25;3.22;;;2.38;;
23578;SDS011;11967;50.852;4.400;2023-07-29T12:30:57;6.85;;;2.70;;
23578;SDS011;11967;50.852;4.400;2023-07-29T12:33:31;3.63;;;2.45;;
23578;SDS011;11967;50.852;4.400;2023-07-29T12:36:00;4.57;;;3.10;;
23578;SDS011;11967;50.852;4.400;2023-07-29T12:38:28;3.53;;;2.90;;
23578;SDS011;11967;50.852;4.400;2023-07-29T12:40:55;4.55;;;2.90;;
23578;SDS011;11967;50.852;4.400;2023-07-29T12:43:21;3.13;;;2.83;;
23578;SDS011;11967;50.852;4.400;2023-07-29T12:45:50;4.68;;;3.30;;
23578;SDS011;11967;50.852;4.400;2023-07-29T12:48:16;4.55;;;2.92;;
23578;SDS011;11967;50.852;4.400;2023-07-29T12:50:42;3.85;;;3.25;;
23578;SDS011;11967;50.852;4.400;2023-07-29T12:53:08;6.53;;;3.30;;
23578;SDS011;11967;50.852;4.400;2023-07-29T12:55:37;3.58;;;3.10;;
23578;SDS011;11967;50.852;4.400;2023-07-29T12:58:03;3.85;;;3.35;;
23578;SDS011;11967;50.852;4.400;2023-07-29T13:00:29;4.93;;;3.13;;
23578;SDS011;11967;50.852;4.400;2023-07-29T13:02:55;3.38;;;2.80;;
23578;SDS011;11967;50.852;4.400;2023-07-29T13:05:21;5.00;;;3.00;;
23578;SDS011;11967;50.852;4.400;2023-07-29T13:07:47;3.55;;;2.50;;
23578;SDS011;11967;50.852;4.400;2023-07-29T13:10:13;4.50;;;2.78;;
23578;SDS011;11967;50.852;4.400;2023-07-29T13:12:39;3.67;;;2.90;;
23578;SDS011;11967;50.852;4.400;2023-07-29T13:15:05;2.95;;;2.60;;
23578;SDS011;11967;50.852;4.400;2023-07-29T13:17:31;2.85;;;2.50;;
23578;SDS011;11967;50.852;4.400;2023-07-29T13:19:58;3.72;;;2.85;;
23578;SDS011;11967;50.852;4.400;2023-07-29T13:22:23;6.18;;;2.70;;
23578;SDS011;11967;50.852;4.400;2023-07-29T13:24:49;5.50;;;2.55;;
23578;SDS011;11967;50.852;4.400;2023-07-29T13:27:14;3.47;;;2.88;;
23578;SDS011;11967;50.852;4.400;2023-07-29T13:29:40;3.00;;;2.70;;
23578;SDS011;11967;50.852;4.400;2023-07-29T13:32:06;4.07;;;2.63;;
23578;SDS011;11967;50.852;4.400;2023-07-29T13:34:32;2.67;;;2.40;;
23578;SDS011;11967;50.852;4.400;2023-07-29T13:36:59;3.50;;;2.70;;
23578;SDS011;11967;50.852;4.400;2023-07-29T13:39:25;3.40;;;2.80;;
23578;SDS011;11967;50.852;4.400;2023-07-29T13:41:50;3.30;;;2.40;;
23578;SDS011;11967;50.852;4.400;2023-07-29T13:44:16;4.80;;;2.15;;
23578;SDS011;11967;50.852;4.400;2023-07-29T13:46:41;6.78;;;2.55;;
23578;SDS011;11967;50.852;4.400;2023-07-29T13:49:07;2.72;;;2.47;;
23578;SDS011;11967;50.852;4.400;2023-07-29T13:51:33;3.78;;;2.28;;
23578;SDS011;11967;50.852;4.400;2023-07-29T13:53:58;2.63;;;2.30;;
23578;SDS011;11967;50.852;4.400;2023-07-29T13:56:24;3.22;;;2.25;;
23578;SDS011;11967;50.852;4.400;2023-07-29T13:58:50;4.25;;;2.50;;
23578;SDS011;11967;50.852;4.400;2023-07-29T14:01:15;2.08;;;1.80;;
23578;SDS011;11967;50.852;4.400;2023-07-29T14:03:41;3.17;;;2.10;;
23578;SDS011;11967;50.852;4.400;2023-07-29T14:06:06;2.22;;;1.80;;
23578;SDS011;11967;50.852;4.400;2023-07-29T14:08:32;2.00;;;1.75;;
23578;SDS011;11967;50.852;4.400;2023-07-29T14:10:57;2.08;;;1.80;;
23578;SDS011;11967;50.852;4.400;2023-07-29T14:13:23;2.55;;;1.60;;
23578;SDS011;11967;50.852;4.400;2023-07-29T14:15:49;1.75;;;1.50;;
23578;SDS011;11967;50.852;4.400;2023-07-29T14:18:14;2.45;;;1.70;;
23578;SDS011;11967;50.852;4.400;2023-07-29T14:20:40;2.03;;;1.50;;
23578;SDS011;11967;50.852;4.400;2023-07-29T14:23:06;1.70;;;1.60;;
23578;SDS011;11967;50.852;4.400;2023-07-29T14:25:31;4.32;;;1.67;;
23578;SDS011;11967;50.852;4.400;2023-07-29T14:27:58;1.75;;;1.35;;
23578;SDS011;11967;50.852;4.400;2023-07-29T14:30:23;1.67;;;1.48;;
23578;SDS011;11967;50.852;4.400;2023-07-29T14:32:49;1.98;;;1.48;;
23578;SDS011;11967;50.852;4.400;2023-07-29T14:35:15;1.83;;;1.63;;
23578;SDS011;11967;50.852;4.400;2023-07-29T14:37:40;1.95;;;1.70;;
23578;SDS011;11967;50.852;4.400;2023-07-29T14:40:06;2.08;;;1.50;;
23578;SDS011;11967;50.852;4.400;2023-07-29T14:42:32;2.75;;;1.50;;
23578;SDS011;11967;50.852;4.400;2023-07-29T14:44:58;3.47;;;1.65;;
23578;SDS011;11967;50.852;4.400;2023-07-29T14:47:23;2.85;;;1.70;;
23578;SDS011;11967;50.852;4.400;2023-07-29T14:49:49;1.60;;;1.45;;
23578;SDS011;11967;50.852;4.400;2023-07-29T14:52:15;2.35;;;1.58;;
23578;SDS011;11967;50.852;4.400;2023-07-29T14:54:40;3.47;;;1.77;;
23578;SDS011;11967;50.852;4.400;2023-07-29T14:57:06;1.80;;;1.60;;
23578;SDS011;11967;50.852;4.400;2023-07-29T14:59:32;2.10;;;1.67;;